Time;durP1;ratioP1;P1;durP2;ratioP2;P2;SDS_P1;SDS_P2;PMS_P1;PMS_P2;Temp;Humidity;BMP_temperature;BMP_pressure;BME280_temperature;BME280_humidity;BME280_pressure;Samples;Min_cycle;Max_cycle;Signal;HPM_P1;HPM_P2
2021/04/06 00:01:14;;;;;;;4.45;1.80;;;0.80;99.10;;;;;;4997482;28;20210;-77
2021/04/06 00:03:42;;;;;;;4.65;2.05;;;1.20;99.00;;;;;;4999901;28;20246;-76
2021/04/06 00:06:09;;;;;;;8.95;2.30;;;0.70;99.30;;;;;;4997296;28;20208;-79
2021/04/06 00:08:36;;;;;;;4.70;1.73;;;1.40;99.90;;;;;;4998665;28;20420;-75
2021/04/06 00:11:05;;;;;;;3.70;1.50;;;0.40;99.90;;;;;;4998584;28;20209;-75
2021/04/06 00:13:36;;;;;;;4.53;2.03;;;0.30;99.90;;;;;;4999097;28;20216;-75
2021/04/06 00:16:07;;;;;;;3.65;2.28;;;0.40;99.90;;;;;;4996051;28;20485;-76
2021/04/06 00:18:35;;;;;;;3.92;1.90;;;0.50;99.90;;;;;;4998186;28;20206;-75
2021/04/06 00:21:05;;;;;;;5.97;1.60;;;0.40;99.90;;;;;;4978073;28;20221;-75
2021/04/06 00:23:32;;;;;;;3.55;1.90;;;0.30;99.90;;;;;;4981317;28;20204;-74
2021/04/06 00:26:01;;;;;;;6.63;2.45;;;0.30;99.90;;;;;;5005522;28;20205;-75
2021/04/06 00:28:33;;;;;;;3.70;1.75;;;0.30;99.90;;;;;;4987695;28;20228;-74
2021/04/06 00:31:00;;;;;;;5.85;2.53;;;0.30;99.90;;;;;;4982874;28;20210;-74
2021/04/06 00:33:30;;;;;;;6.90;3.42;;;0.30;99.50;;;;;;4985796;28;20213;-75
2021/04/06 00:35:58;;;;;;;2.42;2.22;;;0.40;99.80;;;;;;5011329;28;20205;-74
2021/04/06 00:38:29;;;;;;;6.53;2.58;;;0.20;99.90;;;;;;4997802;28;20227;-77
2021/04/06 00:41:01;;;;;;;5.03;2.30;;;0.70;99.90;;;;;;4995677;28;20216;-74
2021/04/06 00:43:33;;;;;;;5.32;2.30;;;0.20;99.90;;;;;;4997789;28;20209;-73
2021/04/06 00:46:01;;;;;;;7.90;2.63;;;0.20;99.90;;;;;;5008984;28;20206;-73
2021/04/06 00:48:31;;;;;;;4.43;2.70;;;0.30;99.90;;;;;;4990787;28;20240;-78
2021/04/06 00:51:08;;;;;;;2.90;1.55;;;0.30;99.60;;;;;;4977295;28;20222;-73
2021/04/06 00:53:57;;;;;;;4.20;2.20;;;0.40;99.30;;;;;;4989540;28;20492;-72
2021/04/06 00:56:44;;;;;;;5.20;2.00;;;0.50;99.10;;;;;;4984586;28;20209;-73
2021/04/06 00:59:22;;;;;;;4.65;2.60;;;0.60;98.90;;;;;;4997521;28;20536;-73
2021/04/06 01:01:56;;;;;;;4.38;2.30;;;0.60;99.10;;;;;;4989491;28;20212;-72
2021/04/06 01:04:26;;;;;;;4.32;1.60;;;0.60;98.80;;;;;;4995001;28;20229;-73
2021/04/06 01:06:58;;;;;;;5.60;1.80;;;1.30;98.70;;;;;;4997991;28;20440;-74
2021/04/06 01:09:35;;;;;;;10.25;2.17;;;0.70;98.70;;;;;;4997284;28;20240;-72
2021/04/06 01:12:05;;;;;;;5.80;2.70;;;0.70;98.80;;;;;;5007237;28;20209;-73
2021/04/06 01:14:33;;;;;;;6.70;2.28;;;0.80;98.90;;;;;;5000912;28;20215;-73
2021/04/06 01:17:02;;;;;;;4.97;1.90;;;1.40;99.10;;;;;;4998102;28;20210;-72
2021/04/06 01:19:30;;;;;;;8.75;3.15;;;0.80;98.50;;;;;;4984096;28;20210;-74
2021/04/06 01:21:58;;;;;;;9.88;2.85;;;1.00;98.50;;;;;;4998464;28;20511;-73
2021/04/06 01:24:27;;;;;;;7.80;2.85;;;0.90;98.30;;;;;;4997467;28;20248;-76
2021/04/06 01:26:56;;;;;;;3.60;2.60;;;1.50;98.80;;;;;;5016907;28;20204;-74
2021/04/06 01:29:24;;;;;;;5.93;2.83;;;0.80;98.60;;;;;;5006468;28;20229;-72
2021/04/06 01:31:52;;;;;;;2.45;1.95;;;1.10;98.80;;;;;;5001021;28;20220;-73
2021/04/06 01:34:19;;;;;;;7.32;3.47;;;0.80;98.70;;;;;;5017434;28;20219;-71
2021/04/06 01:36:47;;;;;;;4.40;2.65;;;0.80;98.70;;;;;;4995050;28;20209;-72
2021/04/06 01:39:19;;;;;;;2.38;1.98;;;0.90;98.70;;;;;;4998106;28;20214;-74
2021/04/06 01:41:47;;;;;;;4.60;2.25;;;1.00;98.70;;;;;;4996155;28;20620;-71
2021/04/06 01:44:15;;;;;;;7.07;2.08;;;1.00;98.60;;;;;;5006530;28;20205;-73
2021/04/06 01:46:45;;;;;;;8.10;2.90;;;1.00;98.70;;;;;;5007249;28;20213;-73
2021/04/06 01:49:13;;;;;;;6.18;2.47;;;1.00;98.50;;;;;;5003763;28;20248;-76
2021/04/06 01:51:41;;;;;;;6.43;2.85;;;1.00;99.40;;;;;;4996707;28;20284;-72
2021/04/06 01:54:09;;;;;;;9.02;3.38;;;1.00;99.30;;;;;;5002235;28;20277;-74
2021/04/06 01:56:44;;;;;;;2.83;1.77;;;0.90;99.90;;;;;;4987586;28;20264;-78
2021/04/06 01:59:15;;;;;;;4.25;2.58;;;0.90;99.90;;;;;;4997036;28;20201;-75
2021/04/06 02:01:46;;;;;;;6.05;2.28;;;0.80;99.90;;;;;;4986870;28;20210;-73
2021/04/06 02:04:19;;;;;;;5.97;2.30;;;0.70;99.90;;;;;;4992091;28;20225;-72
2021/04/06 02:06:46;;;;;;;7.63;2.47;;;0.70;99.90;;;;;;5006959;28;20213;-73
2021/04/06 02:09:13;;;;;;;7.75;2.67;;;0.60;99.90;;;;;;5008130;28;20255;-73
2021/04/06 02:11:41;;;;;;;6.97;2.20;;;0.60;99.90;;;;;;4991823;28;20212;-73
2021/04/06 02:14:15;;;;;;;11.73;2.97;;;0.70;99.90;;;;;;5000617;28;20205;-73
2021/04/06 02:17:01;;;;;;;9.23;2.58;;;0.70;99.90;;;;;;5000241;28;20311;-72
2021/04/06 02:19:39;;;;;;;5.72;2.40;;;0.70;99.90;;;;;;4986013;28;20613;-73
2021/04/06 02:22:14;;;;;;;6.28;3.55;;;0.70;99.90;;;;;;4990137;28;20206;-73
2021/04/06 02:24:46;;;;;;;7.25;2.10;;;0.70;99.80;;;;;;5003399;28;20565;-73
2021/04/06 02:27:29;;;;;;;6.47;2.55;;;1.70;99.70;;;;;;5003462;28;20244;-72
2021/04/06 02:30:01;;;;;;;6.35;2.35;;;0.60;99.40;;;;;;4983520;28;20241;-72
2021/04/06 02:32:29;;;;;;;7.63;3.03;;;0.60;99.40;;;;;;5002584;28;20308;-75
2021/04/06 02:34:58;;;;;;;5.38;2.20;;;0.60;99.30;;;;;;5004727;28;20518;-72
2021/04/06 02:37:30;;;;;;;4.65;2.63;;;0.60;99.20;;;;;;4998069;28;20281;-72
2021/04/06 02:40:01;;;;;;;4.30;2.25;;;1.00;99.00;;;;;;4999978;28;20217;-70
2021/04/06 02:42:33;;;;;;;10.35;2.88;;;1.40;99.20;;;;;;4985699;28;20804;-73
2021/04/06 02:45:16;;;;;;;10.27;2.55;;;0.60;98.90;;;;;;5000521;28;20232;-73
2021/04/06 02:47:54;;;;;;;2.63;1.63;;;0.60;98.70;;;;;;5004529;28;20280;-71
2021/04/06 02:50:26;;;;;;;6.15;2.22;;;0.50;99.10;;;;;;5011022;28;20245;-71
2021/04/06 02:52:54;;;;;;;8.27;2.53;;;0.50;99.10;;;;;;4999315;28;20209;-72
2021/04/06 02:55:22;;;;;;;4.45;2.45;;;0.60;98.60;;;;;;4997382;28;20210;-72
2021/04/06 02:57:54;;;;;;;3.50;2.67;;;0.40;99.00;;;;;;5000104;28;20441;-74
2021/04/06 03:00:26;;;;;;;5.95;2.58;;;0.30;99.40;;;;;;4999205;28;20279;-72
2021/04/06 03:03:01;;;;;;;9.70;3.58;;;0.20;99.30;;;;;;4999624;28;20210;-71
2021/04/06 03:05:33;;;;;;;4.72;3.08;;;0.20;99.50;;;;;;5000707;28;20605;-73
2021/04/06 03:08:00;;;;;;;8.48;3.47;;;0.20;99.20;;;;;;5000851;28;20249;-73
2021/04/06 03:10:29;;;;;;;5.55;2.47;;;0.20;99.70;;;;;;4997399;28;20209;-72
2021/04/06 03:12:57;;;;;;;3.00;2.20;;;0.30;99.40;;;;;;5000156;28;20220;-71
2021/04/06 03:15:25;;;;;;;3.28;2.30;;;0.30;99.30;;;;;;4999326;28;20252;-71
2021/04/06 03:17:57;;;;;;;8.45;2.97;;;0.30;99.40;;;;;;4999295;28;20205;-72
2021/04/06 03:20:25;;;;;;;7.35;3.67;;;0.40;98.90;;;;;;4998071;28;20289;-69
2021/04/06 03:22:55;;;;;;;9.25;4.38;;;0.40;99.10;;;;;;4999660;28;20213;-71
2021/04/06 03:25:22;;;;;;;10.27;3.10;;;0.40;98.90;;;;;;4979933;28;20520;-71
2021/04/06 03:27:51;;;;;;;7.57;4.10;;;0.40;98.70;;;;;;4992210;28;20377;-71
2021/04/06 03:30:37;;;;;;;4.47;1.85;;;0.40;98.80;;;;;;5018150;28;20467;-70
2021/04/06 03:33:03;;;;;;;4.85;1.75;;;0.30;98.80;;;;;;5001662;28;20219;-71
2021/04/06 03:35:32;;;;;;;6.93;1.92;;;0.40;98.70;;;;;;4993240;28;20241;-70
2021/04/06 03:38:00;;;;;;;4.18;1.55;;;0.40;98.90;;;;;;4991957;28;20213;-70
2021/04/06 03:40:45;;;;;;;7.28;2.00;;;0.50;98.40;;;;;;5002996;28;20208;-70
2021/04/06 03:43:16;;;;;;;6.50;1.90;;;0.50;98.70;;;;;;5017723;28;20204;-72
2021/04/06 03:45:59;;;;;;;2.42;1.65;;;0.50;98.50;;;;;;4999689;28;20206;-71
2021/04/06 03:48:37;;;;;;;4.65;2.20;;;0.40;98.50;;;;;;4998654;28;20225;-71
2021/04/06 03:51:24;;;;;;;6.63;2.55;;;0.60;98.80;;;;;;4998849;28;20201;-71
2021/04/06 03:53:51;;;;;;;5.03;2.05;;;0.40;98.40;;;;;;4998930;28;20208;-71
2021/04/06 03:56:18;;;;;;;4.38;2.25;;;0.30;98.50;;;;;;4994539;28;20210;-72
2021/04/06 03:58:55;;;;;;;3.25;2.10;;;0.20;98.80;;;;;;5004631;28;20209;-70
2021/04/06 04:01:22;;;;;;;6.68;2.17;;;0.20;99.10;;;;;;4998866;28;20213;-70
2021/04/06 04:03:58;;;;;;;3.63;2.75;;;-0.10;99.30;;;;;;5002339;28;20221;-70
2021/04/06 04:06:29;;;;;;;4.95;2.28;;;-0.10;99.10;;;;;;4993007;28;20235;-69
2021/04/06 04:08:56;;;;;;;2.70;1.95;;;-0.10;99.00;;;;;;4999502;28;20240;-69
2021/04/06 04:11:23;;;;;;;6.30;3.00;;;-0.20;99.60;;;;;;4998286;28;20220;-70
2021/04/06 04:13:50;;;;;;;11.25;3.05;;;-0.30;99.80;;;;;;4996163;28;20356;-69
2021/04/06 04:16:16;;;;;;;4.10;2.55;;;-0.70;99.20;;;;;;4996375;28;20750;-68
2021/04/06 04:18:43;;;;;;;6.43;3.58;;;-0.20;99.40;;;;;;5000688;28;20205;-69
2021/04/06 04:21:12;;;;;;;4.22;3.65;;;-0.20;99.30;;;;;;4998877;28;20468;-68
2021/04/06 04:23:38;;;;;;;3.60;3.30;;;-0.20;99.20;;;;;;4995121;28;20243;-70
2021/04/06 04:26:06;;;;;;;6.70;3.50;;;-0.20;99.40;;;;;;4990447;28;20219;-69
2021/04/06 04:28:33;;;;;;;7.15;3.38;;;-0.20;99.50;;;;;;4989264;28;20241;-69
2021/04/06 04:31:05;;;;;;;12.20;3.35;;;-0.20;99.40;;;;;;4993924;28;20217;-68
2021/04/06 04:33:32;;;;;;;5.07;3.85;;;-0.10;99.50;;;;;;5000577;28;20276;-68
2021/04/06 04:35:59;;;;;;;10.88;4.72;;;-0.30;99.70;;;;;;5005785;28;20216;-68
2021/04/06 04:38:26;;;;;;;6.93;3.20;;;0.60;99.50;;;;;;4989806;28;20218;-69
2021/04/06 04:40:52;;;;;;;5.97;4.00;;;0.00;98.90;;;;;;5006399;28;20201;-68
2021/04/06 04:43:19;;;;;;;3.65;2.80;;;0.80;98.90;;;;;;4993665;28;20212;-68
2021/04/06 04:45:46;;;;;;;3.47;2.47;;;0.20;98.70;;;;;;4994300;28;20534;-67
2021/04/06 04:48:13;;;;;;;5.35;3.28;;;0.40;98.40;;;;;;4998636;28;20562;-67
2021/04/06 04:50:39;;;;;;;6.68;4.00;;;0.40;98.00;;;;;;4995778;28;20259;-67
2021/04/06 04:53:06;;;;;;;8.27;3.15;;;0.50;98.00;;;;;;4994431;28;20520;-69
2021/04/06 04:55:33;;;;;;;3.10;2.63;;;0.70;97.60;;;;;;4998298;28;20611;-68
2021/04/06 04:58:00;;;;;;;3.33;2.92;;;0.90;97.00;;;;;;4995123;28;20370;-68
2021/04/06 05:00:26;;;;;;;4.05;3.28;;;0.90;97.20;;;;;;4998263;28;20232;-68
2021/04/06 05:02:53;;;;;;;3.58;3.20;;;1.20;96.70;;;;;;5000897;28;20224;-69
2021/04/06 05:05:20;;;;;;;5.90;2.58;;;1.30;95.90;;;;;;4996626;28;20230;-69
2021/04/06 05:07:47;;;;;;;4.80;3.30;;;1.50;95.90;;;;;;4998109;28;20234;-70
2021/04/06 05:10:15;;;;;;;3.15;2.22;;;1.80;95.40;;;;;;5000612;28;20246;-71
2021/04/06 05:12:45;;;;;;;13.38;3.30;;;1.50;95.40;;;;;;5000974;28;20244;-71
2021/04/06 05:15:11;;;;;;;8.23;3.28;;;1.40;95.60;;;;;;5000093;28;20222;-71
2021/04/06 05:17:38;;;;;;;5.03;2.70;;;1.30;95.90;;;;;;4999505;28;20205;-70
2021/04/06 05:20:06;;;;;;;5.80;4.60;;;1.50;95.70;;;;;;4987434;28;20635;-68
2021/04/06 05:22:33;;;;;;;4.35;2.75;;;1.40;95.40;;;;;;4959864;28;20206;-70
2021/04/06 05:24:59;;;;;;;4.38;2.80;;;1.30;95.70;;;;;;4973216;28;20206;-70
2021/04/06 05:27:33;;;;;;;8.82;3.95;;;1.30;95.40;;;;;;4988722;28;20216;-70
2021/04/06 05:30:00;;;;;;;6.78;2.53;;;1.30;95.80;;;;;;4999744;28;20547;-71
2021/04/06 05:32:27;;;;;;;5.57;2.45;;;1.50;95.80;;;;;;5013065;28;20208;-70
2021/04/06 05:34:53;;;;;;;3.03;2.72;;;1.70;95.40;;;;;;4997189;28;20213;-72
2021/04/06 05:37:21;;;;;;;10.88;2.67;;;1.90;94.70;;;;;;4997652;28;20204;-71
2021/04/06 05:39:48;;;;;;;4.68;2.67;;;2.00;94.30;;;;;;4987945;28;20213;-70
2021/04/06 05:42:15;;;;;;;4.07;2.47;;;2.00;94.30;;;;;;4987856;28;20508;-71
2021/04/06 05:44:44;;;;;;;4.75;2.70;;;2.00;93.90;;;;;;4989588;28;20403;-73
2021/04/06 05:47:19;;;;;;;9.07;2.53;;;1.90;94.00;;;;;;4981237;28;20206;-73
2021/04/06 05:49:46;;;;;;;7.55;4.05;;;2.10;93.90;;;;;;4996518;28;20261;-72
2021/04/06 05:52:13;;;;;;;2.72;2.25;;;2.30;93.50;;;;;;4994432;28;20217;-72
2021/04/06 05:54:40;;;;;;;4.32;2.75;;;2.60;93.00;;;;;;4991932;28;20202;-74
2021/04/06 05:57:07;;;;;;;5.22;2.40;;;2.90;92.20;;;;;;5002049;28;20207;-73
2021/04/06 05:59:34;;;;;;;8.77;3.35;;;3.40;91.60;;;;;;4996860;28;20219;-74
2021/04/06 06:02:01;;;;;;;5.10;2.67;;;3.70;91.00;;;;;;4999424;28;20343;-74
2021/04/06 06:04:27;;;;;;;8.77;2.50;;;3.80;90.60;;;;;;4996840;28;20232;-73
2021/04/06 06:06:54;;;;;;;3.83;3.00;;;3.30;91.10;;;;;;4993771;28;20212;-74
2021/04/06 06:09:31;;;;;;;5.65;3.78;;;3.30;91.50;;;;;;5001322;28;20283;-74
2021/04/06 06:12:03;;;;;;;6.25;2.95;;;3.30;91.40;;;;;;4993248;28;20212;-74
2021/04/06 06:14:39;;;;;;;5.95;3.92;;;3.30;91.40;;;;;;5001171;28;20215;-73
2021/04/06 06:17:22;;;;;;;8.80;3.10;;;3.60;91.30;;;;;;4999935;28;20304;-72
2021/04/06 06:19:54;;;;;;;6.10;3.00;;;4.70;90.90;;;;;;4999569;28;20247;-72
2021/04/06 06:22:23;;;;;;;7.75;3.88;;;5.90;83.70;;;;;;4996747;28;20232;-71
2021/04/06 06:25:07;;;;;;;5.32;4.40;;;6.90;79.10;;;;;;4999672;28;20210;-72
2021/04/06 06:27:40;;;;;;;8.20;4.40;;;8.20;74.20;;;;;;4991644;28;20210;-72
2021/04/06 06:30:23;;;;;;;6.45;5.05;;;9.60;69.40;;;;;;4995815;28;20227;-72
2021/04/06 06:33:19;;;;;;;6.05;5.53;;;11.20;59.70;;;;;;5001861;28;20276;-73
2021/04/06 06:35:56;;;;;;;6.20;5.20;;;12.30;55.50;;;;;;4999744;28;20209;-74
2021/04/06 06:38:31;;;;;;;5.65;5.18;;;12.30;53.00;;;;;;4985982;28;20252;-72
2021/04/06 06:41:12;;;;;;;5.13;4.80;;;12.40;53.80;;;;;;4989296;28;20201;-73
2021/04/06 06:43:44;;;;;;;5.97;5.38;;;13.40;54.20;;;;;;5002406;28;20213;-72
2021/04/06 06:46:31;;;;;;;8.98;5.70;;;13.70;48.90;;;;;;4999299;28;20496;-71
2021/04/06 06:49:37;;;;;;;5.78;5.15;;;12.80;50.20;;;;;;4998601;28;20290;-71
2021/04/06 06:52:30;;;;;;;6.05;5.45;;;13.10;51.20;;;;;;4999652;28;20213;-71
2021/04/06 06:55:21;;;;;;;7.65;5.18;;;12.10;54.20;;;;;;4991343;28;20206;-70
2021/04/06 06:58:01;;;;;;;5.00;4.53;;;12.50;55.20;;;;;;5001512;28;20197;-70
2021/04/06 07:00:36;;;;;;;6.93;4.55;;;12.80;53.30;;;;;;5002352;28;20265;-70
2021/04/06 07:03:23;;;;;;;6.28;5.70;;;13.50;51.50;;;;;;4995575;28;20213;-72
2021/04/06 07:06:18;;;;;;;6.13;5.60;;;13.50;49.40;;;;;;4998762;28;20232;-72
2021/04/06 07:08:58;;;;;;;6.50;5.85;;;14.70;48.50;;;;;;4992020;28;20277;-69
2021/04/06 07:11:37;;;;;;;6.85;5.35;;;14.60;47.00;;;;;;4994405;28;20229;-71
2021/04/06 07:14:06;;;;;;;6.72;5.82;;;15.10;44.10;;;;;;5002154;28;20688;-71
2021/04/06 07:16:38;;;;;;;6.13;5.60;;;13.80;45.40;;;;;;4998233;28;20281;-70
2021/04/06 07:19:13;;;;;;;6.32;5.50;;;14.20;46.90;;;;;;5004641;28;20208;-70
2021/04/06 07:21:53;;;;;;;7.18;5.50;;;13.70;48.20;;;;;;4994157;28;20207;-70
2021/04/06 07:24:42;;;;;;;6.05;5.43;;;12.30;51.90;;;;;;4999349;28;20256;-71
2021/04/06 07:27:17;;;;;;;8.00;6.40;;;12.30;53.30;;;;;;4993990;28;20273;-69
2021/04/06 07:29:48;;;;;;;7.28;5.70;;;13.70;46.90;;;;;;5005060;28;20224;-70
2021/04/06 07:32:14;;;;;;;19.35;6.30;;;13.40;48.10;;;;;;5005902;28;20205;-71
2021/04/06 07:34:44;;;;;;;6.00;5.70;;;13.50;46.70;;;;;;5011828;28;20224;-71
2021/04/06 07:37:15;;;;;;;7.25;6.25;;;14.00;48.60;;;;;;5004146;28;20209;-72
2021/04/06 07:39:48;;;;;;;11.10;6.82;;;15.80;43.10;;;;;;5001563;28;20228;-70
2021/04/06 07:42:15;;;;;;;10.32;5.35;;;15.20;42.40;;;;;;5004350;28;20201;-70
2021/04/06 07:44:42;;;;;;;6.93;6.32;;;13.10;46.00;;;;;;4981332;28;20210;-71
2021/04/06 07:47:09;;;;;;;8.05;6.05;;;12.10;48.40;;;;;;5000932;28;20205;-69
2021/04/06 07:49:38;;;;;;;11.40;6.60;;;13.00;48.50;;;;;;5008132;28;20251;-69
2021/04/06 07:52:15;;;;;;;7.05;6.20;;;14.80;44.40;;;;;;5002505;28;20261;-71
2021/04/06 07:54:50;;;;;;;5.53;5.22;;;14.70;45.80;;;;;;5001768;28;20212;-70
2021/04/06 07:57:40;;;;;;;7.10;5.47;;;12.50;46.90;;;;;;4999517;28;20276;-70
2021/04/06 08:00:07;;;;;;;12.80;6.72;;;11.60;51.20;;;;;;5001535;28;20209;-71
2021/04/06 08:02:42;;;;;;;8.63;6.03;;;12.60;51.30;;;;;;5001822;28;20527;-70
2021/04/06 08:05:16;;;;;;;6.63;5.95;;;13.50;47.90;;;;;;5001367;28;20465;-70
2021/04/06 08:07:43;;;;;;;6.70;6.10;;;12.90;47.80;;;;;;5001660;28;20412;-70
2021/04/06 08:10:09;;;;;;;6.45;6.15;;;11.20;52.60;;;;;;5001373;28;20240;-70
2021/04/06 08:12:46;;;;;;;6.13;5.72;;;9.80;54.10;;;;;;4982056;28;20243;-71
2021/04/06 08:15:22;;;;;;;6.30;5.78;;;8.30;56.90;;;;;;4999395;28;20378;-69
2021/04/06 08:18:01;;;;;;;10.25;6.80;;;6.90;66.30;;;;;;4999193;28;20586;-69
2021/04/06 08:20:40;;;;;;;7.18;6.38;;;6.20;67.60;;;;;;4996682;28;20221;-71
2021/04/06 08:23:14;;;;;;;5.40;5.10;;;5.90;73.20;;;;;;4985531;28;20244;-69
2021/04/06 08:25:44;;;;;;;7.55;5.85;;;5.80;72.90;;;;;;4989303;28;20512;-69
2021/04/06 08:28:34;;;;;;;10.45;6.20;;;6.00;74.40;;;;;;4979569;28;20477;-70
2021/04/06 08:31:40;;;;;;;6.88;6.20;;;6.20;73.80;;;;;;4995299;28;20205;-70
2021/04/06 08:34:31;;;;;;;6.07;5.50;;;6.90;68.90;;;;;;4994726;28;20209;-70
2021/04/06 08:37:36;;;;;;;4.80;4.43;;;9.10;62.20;;;;;;4988627;28;20218;-69
2021/04/06 08:40:13;;;;;;;6.00;5.50;;;10.10;58.00;;;;;;4976388;28;20255;-70
2021/04/06 08:42:46;;;;;;;6.72;5.95;;;11.80;54.80;;;;;;4997561;28;20262;-69
2021/04/06 08:45:29;;;;;;;5.03;4.82;;;13.10;48.40;;;;;;4999870;28;20202;-69
2021/04/06 08:48:02;;;;;;;6.53;5.97;;;13.40;45.30;;;;;;4999118;28;20212;-69
2021/04/06 08:50:45;;;;;;;5.80;5.40;;;11.70;50.60;;;;;;4999791;28;20240;-70
2021/04/06 08:53:24;;;;;;;5.30;4.90;;;11.10;50.10;;;;;;4987193;28;20514;-70
2021/04/06 08:56:13;;;;;;;5.25;4.95;;;9.70;55.60;;;;;;4969671;28;20211;-69
2021/04/06 08:58:48;;;;;;;6.38;5.78;;;8.30;58.40;;;;;;5000388;28;20213;-70
2021/04/06 09:01:31;;;;;;;9.32;6.43;;;9.30;58.30;;;;;;5000999;28;20519;-69
2021/04/06 09:04:20;;;;;;;7.57;6.68;;;12.70;49.70;;;;;;4985340;28;20201;-74
2021/04/06 09:06:55;;;;;;;7.20;6.60;;;14.80;44.70;;;;;;4988774;28;20225;-70
2021/04/06 09:09:27;;;;;;;5.72;5.30;;;15.30;42.70;;;;;;4993393;28;20237;-70
2021/04/06 09:12:01;;;;;;;6.32;5.82;;;14.50;42.00;;;;;;4993449;28;20213;-69
2021/04/06 09:14:41;;;;;;;6.00;5.50;;;14.40;43.40;;;;;;4996302;28;20243;-71
2021/04/06 09:17:09;;;;;;;5.53;5.10;;;12.70;45.60;;;;;;5000751;28;20228;-69
2021/04/06 09:19:39;;;;;;;5.30;5.00;;;10.60;50.60;;;;;;5000696;28;20287;-69
2021/04/06 09:22:11;;;;;;;6.00;5.47;;;8.80;52.10;;;;;;4994082;28;20462;-69
2021/04/06 09:24:44;;;;;;;6.07;5.38;;;7.80;56.20;;;;;;5002375;28;20210;-69
2021/04/06 09:27:13;;;;;;;8.13;5.68;;;8.20;58.60;;;;;;5001370;28;20208;-69
2021/04/06 09:29:50;;;;;;;8.77;5.68;;;9.00;57.50;;;;;;4999503;28;20237;-71
2021/04/06 09:32:24;;;;;;;9.90;6.40;;;9.40;57.80;;;;;;4999360;28;20212;-71
2021/04/06 09:34:58;;;;;;;4.40;4.30;;;9.10;55.40;;;;;;5009233;28;20205;-70
2021/04/06 09:37:32;;;;;;;7.07;5.78;;;9.50;54.60;;;;;;4998692;28;20273;-70
2021/04/06 09:40:05;;;;;;;6.47;5.82;;;9.90;53.60;;;;;;5008651;28;20223;-71
2021/04/06 09:42:39;;;;;;;6.50;4.70;;;10.20;53.20;;;;;;4999107;28;20295;-68
2021/04/06 09:45:16;;;;;;;5.78;5.38;;;10.00;54.00;;;;;;5001366;28;20235;-70
2021/04/06 09:47:52;;;;;;;5.82;5.35;;;9.30;54.70;;;;;;5001053;28;20253;-70
2021/04/06 09:50:30;;;;;;;5.15;4.85;;;8.80;55.70;;;;;;4999652;28;20277;-70
2021/04/06 09:53:18;;;;;;;5.53;5.05;;;8.00;57.90;;;;;;4993566;28;20205;-68
2021/04/06 09:55:59;;;;;;;10.30;5.30;;;7.60;62.60;;;;;;4993638;28;20214;-70
2021/04/06 09:58:35;;;;;;;5.40;5.10;;;7.60;60.70;;;;;;4996022;28;20267;-69
2021/04/06 10:01:22;;;;;;;5.20;4.70;;;7.30;60.70;;;;;;4986385;28;20204;-72
2021/04/06 10:03:59;;;;;;;6.43;5.15;;;7.30;60.20;;;;;;5000543;28;20209;-70
2021/04/06 10:06:42;;;;;;;6.28;5.07;;;7.70;57.60;;;;;;5000737;28;20213;-71
2021/04/06 10:09:25;;;;;;;6.28;4.63;;;7.80;59.60;;;;;;5000659;28;20228;-70
2021/04/06 10:11:53;;;;;;;14.18;5.20;;;7.90;59.50;;;;;;5000475;28;20210;-72
2021/04/06 10:14:20;;;;;;;5.40;4.35;;;8.20;58.40;;;;;;5000618;28;20213;-69
2021/04/06 10:17:06;;;;;;;5.20;4.70;;;8.90;54.90;;;;;;5000981;28;20255;-71
2021/04/06 10:19:34;;;;;;;6.38;4.95;;;9.50;54.00;;;;;;5002366;28;20233;-70
2021/04/06 10:22:06;;;;;;;5.95;5.45;;;9.20;56.60;;;;;;5000559;28;20485;-71
2021/04/06 10:24:36;;;;;;;5.30;4.90;;;8.90;56.30;;;;;;4997217;28;20218;-71
2021/04/06 10:27:10;;;;;;;5.70;5.30;;;7.90;56.80;;;;;;4987327;28;20206;-70
2021/04/06 10:29:37;;;;;;;9.18;5.43;;;7.40;57.80;;;;;;4999389;28;20241;-69
2021/04/06 10:32:05;;;;;;;7.28;4.85;;;7.40;60.50;;;;;;4995002;28;20206;-70
2021/04/06 10:34:33;;;;;;;4.57;4.07;;;7.40;59.70;;;;;;4980662;28;20210;-70
2021/04/06 10:37:07;;;;;;;5.68;5.18;;;7.20;56.50;;;;;;4979711;28;20207;-70
2021/04/06 10:39:37;;;;;;;5.20;4.80;;;7.30;58.50;;;;;;4991129;28;20582;-69
2021/04/06 10:42:06;;;;;;;6.38;5.70;;;7.40;59.90;;;;;;4986888;28;20584;-70
2021/04/06 10:44:34;;;;;;;6.57;5.40;;;7.50;63.20;;;;;;5000473;28;20293;-70
2021/04/06 10:47:01;;;;;;;5.07;4.65;;;7.90;61.00;;;;;;4982612;28;20268;-70
2021/04/06 10:49:28;;;;;;;6.20;5.63;;;7.80;57.60;;;;;;5000049;28;20576;-69
2021/04/06 10:51:57;;;;;;;6.57;5.07;;;7.80;56.60;;;;;;5002926;28;20215;-69
2021/04/06 10:54:24;;;;;;;10.02;5.03;;;8.10;57.90;;;;;;4995952;28;20209;-69
2021/04/06 10:56:56;;;;;;;4.85;4.45;;;8.40;58.50;;;;;;5005076;28;20221;-70
2021/04/06 10:59:43;;;;;;;5.85;5.15;;;8.50;58.10;;;;;;5002870;28;20492;-69
2021/04/06 11:02:19;;;;;;;9.20;5.68;;;8.50;57.10;;;;;;4999210;28;20206;-68
2021/04/06 11:04:46;;;;;;;4.80;4.40;;;8.20;59.50;;;;;;4997298;28;20272;-70
2021/04/06 11:07:13;;;;;;;5.25;4.75;;;7.80;58.00;;;;;;4993384;28;20478;-69
2021/04/06 11:09:44;;;;;;;5.25;4.88;;;7.40;61.40;;;;;;4980422;28;20229;-69
2021/04/06 11:12:15;;;;;;;10.18;5.50;;;7.30;60.60;;;;;;4989482;28;20198;-70
2021/04/06 11:14:44;;;;;;;6.75;5.05;;;7.40;62.10;;;;;;4992784;28;20210;-69
2021/04/06 11:17:12;;;;;;;5.22;4.82;;;7.60;59.60;;;;;;5001105;28;20289;-68
2021/04/06 11:19:44;;;;;;;5.32;4.75;;;7.70;59.30;;;;;;5002784;28;20201;-69
2021/04/06 11:22:17;;;;;;;6.93;5.30;;;7.60;58.30;;;;;;5003082;28;20209;-68
2021/04/06 11:24:46;;;;;;;10.75;6.25;;;8.00;59.30;;;;;;4998901;28;20220;-70
2021/04/06 11:27:13;;;;;;;9.45;6.18;;;8.20;58.70;;;;;;4980028;28;20198;-69
2021/04/06 11:29:41;;;;;;;5.68;5.22;;;8.50;58.70;;;;;;4992072;28;20260;-69
2021/04/06 11:32:13;;;;;;;5.00;4.70;;;8.80;58.50;;;;;;4993771;28;20212;-68
2021/04/06 11:34:41;;;;;;;5.25;4.80;;;8.90;57.10;;;;;;4988688;28;20334;-68
2021/04/06 11:37:09;;;;;;;10.40;5.93;;;8.90;55.20;;;;;;4986166;28;20308;-71
2021/04/06 11:39:43;;;;;;;4.80;4.40;;;8.90;53.80;;;;;;4989049;28;20214;-70
2021/04/06 11:42:12;;;;;;;5.03;4.80;;;8.70;54.00;;;;;;5002624;28;20204;-68
2021/04/06 11:44:39;;;;;;;7.32;6.68;;;8.50;53.30;;;;;;5018203;28;20292;-69
2021/04/06 11:47:06;;;;;;;5.25;4.85;;;8.50;54.40;;;;;;5015136;28;20207;-69
2021/04/06 11:49:33;;;;;;;8.88;4.85;;;8.60;54.90;;;;;;5000893;28;20317;-71
2021/04/06 11:52:01;;;;;;;5.03;4.60;;;8.60;56.20;;;;;;5006023;28;20385;-70
2021/04/06 11:54:28;;;;;;;5.18;4.80;;;8.30;57.10;;;;;;4998622;28;20264;-68
2021/04/06 11:56:58;;;;;;;7.90;5.40;;;8.20;58.10;;;;;;4994031;28;20277;-68
2021/04/06 11:59:29;;;;;;;5.88;5.30;;;8.30;58.50;;;;;;5001281;28;20214;-69
2021/04/06 12:01:56;;;;;;;5.10;4.80;;;8.30;57.10;;;;;;4997971;28;20252;-69
2021/04/06 12:04:23;;;;;;;4.90;4.70;;;7.80;58.60;;;;;;5001444;28;20230;-69
2021/04/06 12:06:52;;;;;;;4.72;4.53;;;7.70;59.20;;;;;;4990431;28;20210;-68
2021/04/06 12:09:18;;;;;;;4.68;4.45;;;7.70;59.90;;;;;;5003558;28;20235;-70
2021/04/06 12:11:45;;;;;;;4.72;4.50;;;7.50;59.90;;;;;;5001283;28;20217;-68
2021/04/06 12:14:11;;;;;;;5.90;4.75;;;7.70;61.10;;;;;;5004460;28;20280;-69
2021/04/06 12:16:38;;;;;;;6.35;5.25;;;7.80;59.60;;;;;;4998360;28;20417;-70
2021/04/06 12:19:05;;;;;;;9.60;5.50;;;7.90;60.40;;;;;;5001754;28;20427;-68
2021/04/06 12:21:31;;;;;;;5.13;4.82;;;7.80;58.70;;;;;;5000382;28;20209;-69
2021/04/06 12:23:58;;;;;;;5.70;5.35;;;7.70;59.90;;;;;;5001818;28;20485;-69
2021/04/06 12:26:24;;;;;;;5.80;5.35;;;7.70;59.30;;;;;;5012125;28;20212;-69
2021/04/06 12:28:51;;;;;;;8.85;5.90;;;7.80;59.10;;;;;;4984593;28;20209;-70
2021/04/06 12:31:17;;;;;;;6.10;5.50;;;7.50;60.30;;;;;;4985704;28;20517;-69
2021/04/06 12:33:45;;;;;;;5.80;5.30;;;7.20;62.90;;;;;;4978269;28;20274;-68
2021/04/06 12:36:11;;;;;;;6.22;5.55;;;7.10;63.60;;;;;;4978684;28;20497;-68
2021/04/06 12:38:38;;;;;;;5.85;5.28;;;7.20;64.30;;;;;;4993445;28;20206;-69
2021/04/06 12:41:05;;;;;;;5.68;5.18;;;7.20;61.60;;;;;;4987709;28;20475;-69
2021/04/06 12:43:34;;;;;;;6.90;6.20;;;7.10;64.10;;;;;;4995332;28;20213;-68
2021/04/06 12:46:02;;;;;;;9.45;5.97;;;7.10;64.90;;;;;;4986159;28;20296;-68
2021/04/06 12:48:30;;;;;;;9.57;5.78;;;7.20;62.30;;;;;;4996660;28;20277;-69
2021/04/06 12:50:57;;;;;;;5.75;5.18;;;7.10;63.40;;;;;;4977150;28;20560;-68
2021/04/06 12:53:24;;;;;;;8.02;7.40;;;7.00;63.30;;;;;;4976233;28;20509;-69
2021/04/06 12:55:51;;;;;;;7.88;7.25;;;6.90;64.60;;;;;;4976089;28;20277;-69
2021/04/06 12:58:17;;;;;;;5.82;5.18;;;7.00;64.80;;;;;;4971127;28;20206;-68
2021/04/06 13:00:44;;;;;;;6.32;5.72;;;7.00;64.30;;;;;;4978223;28;20257;-69
2021/04/06 13:03:11;;;;;;;5.97;5.57;;;6.70;64.60;;;;;;4979456;28;20210;-68
2021/04/06 13:05:37;;;;;;;6.20;5.70;;;6.80;65.60;;;;;;4979432;28;20263;-68
2021/04/06 13:08:08;;;;;;;5.10;4.80;;;6.40;66.50;;;;;;4980347;28;20210;-68
2021/04/06 13:10:36;;;;;;;9.40;6.57;;;6.30;65.40;;;;;;4974481;28;20227;-70
2021/04/06 13:13:02;;;;;;;5.50;5.00;;;6.30;68.30;;;;;;4978266;28;20253;-69
2021/04/06 13:15:29;;;;;;;7.35;6.00;;;6.40;67.20;;;;;;4979118;28;20213;-68
2021/04/06 13:17:56;;;;;;;6.20;5.75;;;6.40;67.50;;;;;;4980089;28;20284;-68
2021/04/06 13:20:22;;;;;;;5.70;5.30;;;6.20;66.80;;;;;;4976355;28;20288;-69